Time;durP1;ratioP1;P1;durP2;ratioP2;P2;SDS_P1;SDS_P2;PMS_P1;PMS_P2;Temp;Humidity;BMP_temperature;BMP_pressure;BME280_temperature;BME280_humidity;BME280_pressure;Samples;Min_cycle;Max_cycle;Signal;HPM_P1;HPM_P2
2020/12/17 00:00:40;;;;;;;6.03;4.90;;;;;;;8.51;96.81;101261.16;5051286;28;20040;-78
2020/12/17 00:03:05;;;;;;;6.32;4.78;;;;;;;8.52;96.63;101258.47;5052833;28;20396;-79
2020/12/17 00:05:31;;;;;;;7.88;4.45;;;;;;;8.46;97.33;101260.44;5051671;28;20126;-78
2020/12/17 00:07:56;;;;;;;7.13;4.30;;;;;;;8.51;96.73;101261.16;5053254;28;20029;-80
2020/12/17 00:10:21;;;;;;;7.70;5.32;;;;;;;8.57;96.54;101264.47;5055927;28;20029;-80
2020/12/17 00:12:47;;;;;;;8.48;4.70;;;;;;;8.60;96.28;101260.06;5053431;28;20033;-80
2020/12/17 00:15:15;;;;;;;5.20;4.32;;;;;;;8.57;96.66;101261.00;5049683;28;20082;-79
2020/12/17 00:17:43;;;;;;;6.47;5.00;;;;;;;8.64;95.99;101259.06;5050694;28;20040;-79
2020/12/17 00:20:10;;;;;;;6.32;4.47;;;;;;;8.67;95.86;101262.44;5054734;28;20028;-79
2020/12/17 00:22:36;;;;;;;6.38;5.03;;;;;;;8.72;95.49;101259.66;5054905;28;20443;-79
2020/12/17 00:25:04;;;;;;;5.90;4.40;;;;;;;8.62;95.95;101253.81;5054869;28;20047;-80
2020/12/17 00:27:29;;;;;;;6.00;4.68;;;;;;;8.62;96.06;101258.22;5056356;28;20025;-79
2020/12/17 00:29:55;;;;;;;6.60;4.85;;;;;;;8.67;95.73;101258.94;5053385;28;20075;-79
2020/12/17 00:32:20;;;;;;;6.28;4.43;;;;;;;8.71;95.63;101257.94;5053593;28;20027;-79
2020/12/17 00:34:45;;;;;;;6.30;4.60;;;;;;;8.63;96.12;101252.03;5051655;28;20441;-80
2020/12/17 00:37:10;;;;;;;6.90;4.70;;;;;;;8.72;95.59;101251.75;5055212;28;20029;-79
2020/12/17 00:39:36;;;;;;;6.28;4.40;;;;;;;8.72;95.47;101249.13;5054217;28;20032;-80
2020/12/17 00:42:03;;;;;;;4.90;4.35;;;;;;;8.67;95.73;101251.03;5059556;28;20496;-79
2020/12/17 00:44:29;;;;;;;4.70;4.20;;;;;;;8.59;96.13;101239.88;5047453;28;20025;-80
2020/12/17 00:46:54;;;;;;;6.38;4.55;;;;;;;8.68;95.93;101242.22;5059554;28;20016;-80
2020/12/17 00:49:19;;;;;;;5.90;4.30;;;;;;;8.69;95.76;101246.59;5050689;28;20032;-79
2020/12/17 00:51:44;;;;;;;9.65;5.47;;;;;;;8.68;95.73;101248.34;5054553;28;20027;-79
2020/12/17 00:54:10;;;;;;;5.07;4.22;;;;;;;8.64;95.87;101246.75;5052649;28;20028;-80
2020/12/17 00:56:35;;;;;;;7.07;4.80;;;;;;;8.62;96.11;101239.78;5055272;28;20033;-79
2020/12/17 00:59:00;;;;;;;6.00;5.07;;;;;;;8.61;96.19;101251.22;5054137;28;20038;-79
2020/12/17 01:01:25;;;;;;;8.18;4.60;;;;;;;8.61;95.91;101246.81;5050888;28;20067;-80
2020/12/17 01:03:51;;;;;;;8.43;4.45;;;;;;;8.65;96.07;101248.47;5052689;28;20751;-79
2020/12/17 01:06:16;;;;;;;7.28;4.53;;;;;;;8.57;96.36;101242.53;5053934;28;20083;-79
2020/12/17 01:08:42;;;;;;;6.70;4.50;;;;;;;8.63;96.11;101246.75;5050587;28;20056;-79
2020/12/17 01:11:07;;;;;;;6.32;4.32;;;;;;;8.65;96.17;101250.22;5053775;28;20378;-79
2020/12/17 01:13:32;;;;;;;5.05;4.10;;;;;;;8.64;95.93;101248.50;5050110;28;20021;-79
2020/12/17 01:15:58;;;;;;;5.28;3.58;;;;;;;8.56;96.61;101251.38;5056224;28;20020;-79
2020/12/17 01:18:23;;;;;;;5.63;4.72;;;;;;;8.56;96.65;101251.38;5057860;28;20035;-79
2020/12/17 01:20:48;;;;;;;9.55;5.25;;;;;;;8.61;96.06;101256.50;5055823;28;20025;-80
2020/12/17 01:23:14;;;;;;;7.43;4.93;;;;;;;8.61;96.51;101256.50;5057559;28;20100;-79
2020/12/17 01:25:39;;;;;;;5.57;4.80;;;;;;;8.57;96.48;101255.72;5043943;28;20032;-80
2020/12/17 01:28:10;;;;;;;6.00;4.50;;;;;;;8.53;96.79;101257.59;5063169;28;20066;-80
2020/12/17 01:30:36;;;;;;;7.00;4.70;;;;;;;8.59;96.50;101250.44;5055778;28;20037;-79
2020/12/17 01:33:01;;;;;;;9.65;4.95;;;;;;;8.56;96.77;101254.84;5060847;28;20029;-79
2020/12/17 01:35:26;;;;;;;5.38;4.25;;;;;;;8.60;96.52;101254.78;5035302;28;20720;-79
2020/12/17 01:37:51;;;;;;;7.68;5.13;;;;;;;8.54;96.94;101250.56;5054275;28;20036;-80
2020/12/17 01:40:17;;;;;;;6.25;4.70;;;;;;;8.54;97.10;101266.38;5054193;28;20132;-79
2020/12/17 01:42:42;;;;;;;6.43;4.32;;;;;;;8.53;96.98;101252.34;5053709;28;20463;-79
2020/12/17 01:45:07;;;;;;;6.22;4.95;;;;;;;8.50;97.67;101257.69;5055884;28;20040;-79
2020/12/17 01:47:38;;;;;;;5.28;4.40;;;;;;;8.57;97.24;101246.03;5058085;28;20033;-79
2020/12/17 01:50:06;;;;;;;6.65;4.82;;;;;;;8.46;97.82;101250.75;5053127;28;20131;-79
2020/12/17 01:52:32;;;;;;;7.38;4.90;;;;;;;8.47;98.05;101257.75;5060607;28;20028;-79
2020/12/17 01:54:57;;;;;;;8.48;4.50;;;;;;;8.49;97.75;101247.19;5056801;28;20029;-79
2020/12/17 01:57:29;;;;;;;5.40;4.65;;;;;;;8.43;98.22;101253.47;5043880;28;20505;-79
2020/12/17 01:59:57;;;;;;;8.90;5.10;;;;;;;8.35;99.04;101244.06;5053935;28;20020;-79
2020/12/17 02:02:23;;;;;;;8.80;5.65;;;;;;;8.37;98.69;101252.81;5056144;28;20115;-79
2020/12/17 02:04:48;;;;;;;6.82;5.13;;;;;;;8.37;98.53;101250.16;5053764;28;20020;-79
2020/12/17 02:07:14;;;;;;;8.10;5.05;;;;;;;8.42;98.38;101256.16;5058733;28;20106;-79
2020/12/17 02:09:40;;;;;;;7.60;4.70;;;;;;;8.44;98.36;101255.22;5054760;28;20041;-79
2020/12/17 02:12:08;;;;;;;6.65;4.97;;;;;;;8.42;98.35;101258.81;5054896;28;20036;-79
2020/12/17 02:14:33;;;;;;;5.85;4.70;;;;;;;8.32;99.00;101248.50;5055416;28;20035;-79
2020/12/17 02:16:59;;;;;;;8.80;4.60;;;;;;;8.47;98.41;101247.22;5058287;28;20100;-79
2020/12/17 02:19:24;;;;;;;7.05;5.15;;;;;;;8.34;99.13;101252.88;5050705;28;20184;-79
2020/12/17 02:21:49;;;;;;;5.50;4.60;;;;;;;8.46;98.35;101261.31;5055484;28;20106;-79
2020/12/17 02:24:23;;;;;;;5.97;4.28;;;;;;;8.50;98.49;101256.81;5056278;28;20484;-78
2020/12/17 02:26:48;;;;;;;7.30;5.00;;;;;;;8.54;98.29;101261.09;5057193;28;20118;-79
2020/12/17 02:29:14;;;;;;;7.65;4.93;;;;;;;8.42;98.66;101253.53;5061844;28;20663;-79
2020/12/17 02:31:39;;;;;;;7.65;4.55;;;;;;;8.45;99.15;101264.00;5054803;28;20711;-79
2020/12/17 02:34:04;;;;;;;8.52;4.60;;;;;;;8.47;98.71;101265.66;5059736;28;20775;-79
2020/12/17 02:36:30;;;;;;;7.68;5.25;;;;;;;8.45;99.15;101256.09;5053981;28;20039;-79
2020/12/17 02:38:55;;;;;;;8.63;5.40;;;;;;;8.45;99.45;101254.31;5055398;28;20090;-79
2020/12/17 02:41:20;;;;;;;7.57;5.47;;;;;;;8.45;99.24;101249.06;5057887;28;20051;-78
2020/12/17 02:43:46;;;;;;;8.25;5.95;;;;;;;8.43;99.67;101255.25;5053188;28;20075;-78
2020/12/17 02:46:11;;;;;;;5.35;4.32;;;;;;;8.49;99.48;101257.72;5054625;28;20386;-78
2020/12/17 02:48:36;;;;;;;7.18;5.40;;;;;;;8.42;100.00;101259.66;5060647;28;20033;-79
2020/12/17 02:51:02;;;;;;;10.50;5.53;;;;;;;8.46;99.95;101263.06;5051245;28;20101;-79
2020/12/17 02:53:27;;;;;;;5.90;4.97;;;;;;;8.43;100.00;101263.16;5055639;28;20039;-79
2020/12/17 02:55:53;;;;;;;7.18;5.68;;;;;;;8.44;100.00;101260.50;5059652;28;20442;-79
2020/12/17 02:58:19;;;;;;;8.10;5.93;;;;;;;8.44;100.00;101257.88;5053572;28;20040;-79
2020/12/17 03:06:37;;;;;;;15.85;7.80;;;;;;;8.36;100.00;101262.47;5056387;28;20048;-78
2020/12/17 03:09:05;;;;;;;8.43;7.25;;;;;;;8.38;100.00;101271.19;5049853;28;20048;-78
2020/12/17 03:11:31;;;;;;;10.13;7.35;;;;;;;8.35;100.00;101267.75;5049354;28;20082;-78
2020/12/17 03:13:56;;;;;;;12.90;7.60;;;;;;;8.35;100.00;101266.00;5051400;28;20020;-78
2020/12/17 03:16:21;;;;;;;12.30;8.23;;;;;;;8.28;100.00;101262.69;5057057;28;20033;-78
2020/12/17 03:18:47;;;;;;;11.35;8.30;;;;;;;8.29;100.00;101266.16;5056110;28;20031;-78
2020/12/17 03:21:12;;;;;;;15.23;9.02;;;;;;;8.23;100.00;101254.03;5060684;28;20028;-78
2020/12/17 03:23:38;;;;;;;11.38;8.75;;;;;;;8.25;100.00;101262.75;5056210;28;20170;-78
2020/12/17 03:26:03;;;;;;;10.02;8.65;;;;;;;8.26;100.00;101275.00;5056802;28;20036;-78
2020/12/17 03:28:28;;;;;;;13.75;9.05;;;;;;;8.27;100.00;101274.09;5053684;28;20032;-78
2020/12/17 03:30:53;;;;;;;12.75;8.98;;;;;;;8.26;100.00;101282.03;5058820;28;20624;-78
2020/12/17 03:33:19;;;;;;;11.10;8.88;;;;;;;8.24;100.00;101275.97;5057686;28;20027;-78
2020/12/17 03:35:45;;;;;;;15.35;9.38;;;;;;;8.22;100.00;101275.13;5058659;28;20048;-78
2020/12/17 03:38:10;;;;;;;13.75;10.25;;;;;;;8.24;100.00;101284.72;5051584;28;20462;-77
2020/12/17 03:40:35;;;;;;;16.70;10.07;;;;;;;8.23;100.00;101283.00;5063768;28;20028;-78
2020/12/17 03:43:00;;;;;;;13.13;9.80;;;;;;;8.23;100.00;101292.66;5053013;28;20048;-78
2020/12/17 03:45:26;;;;;;;13.05;9.00;;;;;;;8.19;100.00;101291.91;5059986;28;20033;-77
2020/12/17 03:47:51;;;;;;;14.88;10.05;;;;;;;8.21;100.00;101297.09;5056776;28;20024;-78
2020/12/17 03:50:17;;;;;;;15.70;9.77;;;;;;;8.21;100.00;101305.00;5054449;28;20079;-77
2020/12/17 03:52:42;;;;;;;14.02;9.77;;;;;;;8.23;100.00;101308.44;5053608;28;20036;-78
2020/12/17 03:55:07;;;;;;;12.75;9.77;;;;;;;8.21;100.00;101305.00;5053392;28;20073;-78
2020/12/17 03:57:33;;;;;;;12.95;8.77;;;;;;;8.23;100.00;101305.81;5052490;28;20674;-78
2020/12/17 03:59:58;;;;;;;12.52;9.35;;;;;;;8.17;100.00;101298.94;5056610;28;20063;-77
2020/12/17 04:02:23;;;;;;;12.20;10.35;;;;;;;8.19;100.00;101309.47;5055684;28;20024;-78
2020/12/17 04:04:49;;;;;;;14.88;11.23;;;;;;;8.20;100.00;101309.41;5053242;28;20040;-77
2020/12/17 04:07:15;;;;;;;14.95;10.90;;;;;;;8.18;100.00;101303.34;5053915;28;20543;-78
2020/12/17 04:09:41;;;;;;;17.85;12.75;;;;;;;8.17;100.00;101300.72;5052301;28;20045;-78
2020/12/17 04:12:07;;;;;;;13.50;10.75;;;;;;;8.18;100.00;101302.44;5060463;28;20025;-78
2020/12/17 04:14:32;;;;;;;15.20;11.35;;;;;;;8.17;100.00;101292.81;5058164;28;20373;-78
2020/12/17 04:16:57;;;;;;;14.20;11.15;;;;;;;8.13;100.00;101299.06;5061464;28;20024;-78
2020/12/17 04:19:23;;;;;;;13.77;11.43;;;;;;;8.13;100.00;101296.44;5058318;28;20086;-78
2020/12/17 04:21:48;;;;;;;14.90;11.38;;;;;;;8.13;100.00;101299.94;5060121;28;20016;-78
2020/12/17 04:24:13;;;;;;;15.82;11.85;;;;;;;8.15;100.00;101308.69;5048995;28;20749;-78
2020/12/17 04:26:39;;;;;;;15.43;12.65;;;;;;;8.07;100.00;101302.75;5057761;28;20028;-78
2020/12/17 04:29:05;;;;;;;15.90;12.30;;;;;;;8.03;100.00;101294.09;5050776;28;20025;-78
2020/12/17 04:31:30;;;;;;;16.60;11.68;;;;;;;8.04;100.00;101300.22;5058948;28;20035;-78
2020/12/17 04:33:56;;;;;;;16.45;12.52;;;;;;;8.01;100.00;101309.03;5037307;28;20078;-78
2020/12/17 04:36:21;;;;;;;14.13;12.20;;;;;;;8.00;100.00;101295.91;5058119;28;20040;-78
2020/12/17 04:38:47;;;;;;;14.73;12.80;;;;;;;8.03;100.00;101301.97;5055226;28;20511;-78
2020/12/17 04:41:15;;;;;;;20.90;12.90;;;;;;;8.04;100.00;101310.72;5052669;28;20032;-78
2020/12/17 04:43:40;;;;;;;19.48;13.75;;;;;;;8.04;100.00;101314.22;5046151;28;20033;-78
2020/12/17 04:46:06;;;;;;;15.32;11.88;;;;;;;7.99;100.00;101313.50;5057738;28;20211;-78
2020/12/17 04:48:33;;;;;;;17.05;12.38;;;;;;;7.99;100.00;101321.38;5054473;28;20044;-78
2020/12/17 04:50:58;;;;;;;19.98;12.85;;;;;;;7.97;100.00;101325.81;5053871;28;20023;-78
2020/12/17 04:53:24;;;;;;;15.48;13.10;;;;;;;7.97;100.00;101335.47;5051406;28;20029;-78
2020/12/17 04:55:51;;;;;;;20.42;14.15;;;;;;;7.95;100.00;101343.41;5059467;28;20056;-78
2020/12/17 04:58:20;;;;;;;21.70;14.38;;;;;;;7.94;100.00;101346.09;5055256;28;20043;-78
2020/12/17 05:00:51;;;;;;;18.13;13.93;;;;;;;7.92;100.00;101348.75;5058252;28;20034;-79
2020/12/17 05:03:17;;;;;;;15.52;13.23;;;;;;;7.93;100.00;101347.88;5055373;28;20436;-78
2020/12/17 05:05:42;;;;;;;23.27;13.45;;;;;;;7.89;100.00;101353.25;5054201;28;20021;-78
2020/12/17 05:08:09;;;;;;;18.95;13.57;;;;;;;7.87;100.00;101368.19;5060775;28;20505;-78
2020/12/17 05:10:34;;;;;;;19.27;13.73;;;;;;;7.89;100.00;101377.78;5055796;28;20029;-79
2020/12/17 05:13:00;;;;;;;21.58;12.85;;;;;;;7.86;100.00;101377.84;5055659;28;20036;-78
2020/12/17 05:15:26;;;;;;;15.23;12.82;;;;;;;7.89;100.00;101384.84;5059492;28;20543;-78
2020/12/17 05:17:52;;;;;;;20.95;13.40;;;;;;;7.88;100.00;101377.81;5061661;28;20396;-78
2020/12/17 05:20:18;;;;;;;14.63;12.05;;;;;;;7.86;100.00;101369.97;5056513;28;20132;-78
2020/12/17 05:22:45;;;;;;;21.88;13.90;;;;;;;7.84;100.00;101377.03;5049544;28;20537;-78
2020/12/17 05:25:11;;;;;;;17.20;12.80;;;;;;;7.78;100.00;101378.06;5060018;28;20487;-78
2020/12/17 05:27:37;;;;;;;15.85;12.63;;;;;;;7.78;100.00;101370.16;5053511;28;20057;-78
2020/12/17 05:30:04;;;;;;;18.65;12.15;;;;;;;7.79;100.00;101371.91;5056193;28;20091;-78
2020/12/17 05:32:29;;;;;;;17.42;12.63;;;;;;;7.79;100.00;101389.44;5056077;28;20017;-78
2020/12/17 05:34:55;;;;;;;19.42;12.18;;;;;;;7.79;100.00;101389.44;5056558;28;20124;-78
2020/12/17 05:37:22;;;;;;;15.32;12.02;;;;;;;7.80;100.00;101409.59;5056261;28;20063;-78
2020/12/17 05:39:49;;;;;;;14.07;11.70;;;;;;;7.84;100.00;101413.88;5052109;28;20029;-78
2020/12/17 05:42:15;;;;;;;15.32;11.52;;;;;;;7.84;100.00;101419.16;5058247;28;20038;-78
2020/12/17 05:44:40;;;;;;;14.35;12.15;;;;;;;7.83;100.00;101413.91;5054000;28;20119;-78
2020/12/17 05:47:12;;;;;;;19.85;12.98;;;;;;;7.82;100.00;101425.34;5075929;28;20142;-78
2020/12/17 05:49:38;;;;;;;13.73;11.00;;;;;;;7.80;100.00;101430.66;5053090;28;20029;-78
2020/12/17 05:52:17;;;;;;;18.25;12.23;;;;;;;7.80;100.00;101414.84;5056538;28;20027;-78
2020/12/17 05:55:01;;;;;;;18.05;11.88;;;;;;;7.81;100.00;101434.13;5054620;28;20112;-77
2020/12/17 05:57:27;;;;;;;16.10;11.85;;;;;;;7.83;100.00;101432.31;5056833;28;20020;-78
2020/12/17 05:59:55;;;;;;;15.07;11.55;;;;;;;7.83;100.00;101441.13;5054954;28;20107;-78
2020/12/17 06:02:29;;;;;;;18.70;11.55;;;;;;;7.81;100.00;101436.78;5061600;28;20420;-78
2020/12/17 06:05:07;;;;;;;16.33;11.45;;;;;;;7.82;100.00;101438.50;5058140;28;20039;-77
2020/12/17 06:07:50;;;;;;;18.25;11.68;;;;;;;7.78;100.00;101428.06;5055611;28;20485;-77
2020/12/17 06:10:20;;;;;;;19.15;12.43;;;;;;;7.75;100.00;101443.03;5053832;28;20070;-77
2020/12/17 06:12:47;;;;;;;20.98;12.38;;;;;;;7.84;100.00;101449.88;5054770;28;20025;-77
2020/12/17 06:15:17;;;;;;;20.52;12.70;;;;;;;7.79;100.00;101450.84;5057823;28;20074;-77
2020/12/17 06:17:47;;;;;;;22.83;12.93;;;;;;;7.82;100.00;101451.66;5055321;28;20025;-77
2020/12/17 06:20:13;;;;;;;20.85;12.63;;;;;;;7.79;100.00;101448.22;5054932;28;20032;-77
2020/12/17 06:22:38;;;;;;;22.60;14.02;;;;;;;7.89;100.00;101453.25;5068884;28;20028;-77
2020/12/17 06:25:03;;;;;;;20.60;13.05;;;;;;;7.81;100.00;101455.19;5051487;28;20480;-77
2020/12/17 06:27:31;;;;;;;18.58;13.50;;;;;;;7.85;100.00;101456.84;5059696;28;20025;-80
2020/12/17 06:30:06;;;;;;;21.40;15.45;;;;;;;7.84;100.00;101455.13;5055657;28;20036;-81
2020/12/17 06:32:34;;;;;;;21.02;15.25;;;;;;;7.84;100.00;101457.75;5057366;28;20401;-80
2020/12/17 06:35:05;;;;;;;20.00;14.63;;;;;;;7.89;100.00;101466.41;5055684;28;20661;-80
2020/12/17 06:37:34;;;;;;;21.67;14.85;;;;;;;7.90;100.00;101466.38;5062278;28;20456;-82
2020/12/17 06:39:59;;;;;;;22.95;15.75;;;;;;;7.90;100.00;101474.28;5051922;28;20033;-82
2020/12/17 06:42:40;;;;;;;20.42;14.95;;;;;;;7.95;100.00;101472.41;5057107;28;20126;-82
2020/12/17 06:45:23;;;;;;;22.85;14.43;;;;;;;7.97;100.00;101469.72;5051317;28;20187;-81
2020/12/17 06:47:48;;;;;;;21.27;16.40;;;;;;;7.93;100.00;101476.84;5057812;28;20422;-81
2020/12/17 06:50:30;;;;;;;19.65;14.77;;;;;;;7.95;100.00;101475.03;5056404;28;20100;-82
2020/12/17 06:53:05;;;;;;;19.80;14.02;;;;;;;7.98;100.00;101474.97;5028374;28;20147;-81
2020/12/17 06:55:44;;;;;;;19.50;15.20;;;;;;;7.93;100.00;101471.59;5026256;28;20107;-81
2020/12/17 06:58:23;;;;;;;18.67;14.50;;;;;;;7.95;100.00;101475.03;5045210;28;20154;-81
2020/12/17 07:00:51;;;;;;;21.83;15.45;;;;;;;7.93;100.00;101479.47;5052991;28;20017;-82
2020/12/17 07:03:48;;;;;;;18.80;14.10;;;;;;;7.99;100.00;101484.59;5053511;28;20408;-82
2020/12/17 07:06:15;;;;;;;19.58;14.55;;;;;;;7.97;100.00;101488.13;5054283;28;20455;-82
2020/12/17 07:08:41;;;;;;;24.00;15.70;;;;;;;7.99;100.00;101489.00;5049228;28;20448;-81
2020/12/17 07:11:07;;;;;;;24.05;16.70;;;;;;;7.97;100.00;101502.16;5058354;28;20412;-81
2020/12/17 07:13:40;;;;;;;21.08;15.45;;;;;;;7.99;100.00;101502.16;5046560;28;20433;-81
2020/12/17 07:16:18;;;;;;;23.88;17.15;;;;;;;7.94;100.00;101501.41;5070477;28;20103;-81
2020/12/17 07:18:43;;;;;;;21.50;15.00;;;;;;;7.96;100.00;101505.72;5031393;28;20503;-82
2020/12/17 07:21:08;;;;;;;25.23;15.55;;;;;;;7.98;100.00;101516.19;5050287;28;20028;-82
2020/12/17 07:23:35;;;;;;;22.63;15.70;;;;;;;7.99;100.00;101526.72;5050091;28;20025;-82
2020/12/17 07:26:06;;;;;;;19.73;14.55;;;;;;;7.92;100.00;101517.19;5053614;28;20122;-83
2020/12/17 07:28:31;;;;;;;20.55;14.93;;;;;;;7.94;100.00;101525.09;5051796;28;20086;-85
2020/12/17 07:30:56;;;;;;;21.60;14.30;;;;;;;7.92;100.00;101524.22;5058810;28;20029;-84
2020/12/17 07:33:41;;;;;;;18.52;14.40;;;;;;;7.90;100.00;101526.03;5052541;28;20495;-85
2020/12/17 07:36:08;;;;;;;15.88;12.05;;;;;;;7.90;100.00;101524.28;5046021;28;20055;-85
2020/12/17 07:38:34;;;;;;;15.48;12.23;;;;;;;7.90;100.00;101521.66;5046599;28;20028;-84
2020/12/17 07:40:59;;;;;;;18.70;12.30;;;;;;;7.92;100.00;101540.88;5045215;28;20504;-85
2020/12/17 07:43:40;;;;;;;17.83;11.77;;;;;;;7.88;100.00;101528.72;5050807;28;20516;-82
2020/12/17 07:46:07;;;;;;;16.27;11.80;;;;;;;7.88;100.00;101541.00;5046419;28;20036;-84
2020/12/17 07:48:51;;;;;;;16.55;12.13;;;;;;;7.86;100.00;101542.81;5064028;28;20032;-85
2020/12/17 07:51:31;;;;;;;18.98;11.52;;;;;;;7.90;100.00;101547.09;5043506;28;20470;-85
2020/12/17 07:54:01;;;;;;;17.38;11.30;;;;;;;7.88;100.00;101549.78;5049821;28;20529;-83
2020/12/17 07:56:26;;;;;;;19.17;11.85;;;;;;;7.87;100.00;101562.94;5034434;28;20052;-81
2020/12/17 07:58:52;;;;;;;16.52;12.60;;;;;;;7.85;100.00;101562.13;5052810;28;20485;-83
2020/12/17 08:01:18;;;;;;;16.38;11.85;;;;;;;7.85;100.00;101559.50;5051806;28;20029;-83
2020/12/17 08:03:44;;;;;;;15.77;11.68;;;;;;;7.86;100.00;101550.69;5050138;28;20055;-83
2020/12/17 08:06:12;;;;;;;17.27;12.02;;;;;;;7.92;100.00;101561.09;5054327;28;20028;-82
2020/12/17 08:08:37;;;;;;;20.58;11.68;;;;;;;7.94;100.00;101572.47;5048192;28;20057;-83
2020/12/17 08:11:04;;;;;;;19.23;10.50;;;;;;;7.97;100.00;101572.38;5049145;28;20035;-85
2020/12/17 08:13:30;;;;;;;19.55;9.45;;;;;;;7.98;100.00;101568.84;5053296;28;20028;-81
2020/12/17 08:15:58;;;;;;;21.35;10.82;;;;;;;7.95;100.00;101579.47;5046091;28;20082;-82
2020/12/17 08:18:26;;;;;;;14.05;9.43;;;;;;;7.94;100.00;101586.50;5053231;28;20163;-83
2020/12/17 08:21:08;;;;;;;15.57;9.35;;;;;;;7.93;100.00;101583.88;5053635;28;20085;-81
2020/12/17 08:23:36;;;;;;;20.85;9.52;;;;;;;7.91;100.00;101586.53;5049217;28;20400;-83
2020/12/17 08:26:03;;;;;;;16.20;8.80;;;;;;;7.89;100.00;101587.50;5054037;28;20023;-83
2020/12/17 08:28:31;;;;;;;14.88;10.02;;;;;;;7.84;100.00;101595.47;5050101;28;20400;-83
2020/12/17 08:31:06;;;;;;;17.27;8.32;;;;;;;7.85;100.00;101594.56;5051419;28;20036;-83
2020/12/17 08:33:35;;;;;;;13.18;7.70;;;;;;;7.90;100.00;101605.00;5055176;28;20017;-82
2020/12/17 08:36:02;;;;;;;12.65;7.43;;;;;;;7.90;100.00;101607.63;5054512;28;20493;-82
2020/12/17 08:38:28;;;;;;;15.55;8.93;;;;;;;7.91;100.00;101604.97;5056615;28;20104;-83
2020/12/17 08:40:56;;;;;;;15.65;8.75;;;;;;;7.88;100.00;101604.16;5057477;28;20113;-84
2020/12/17 08:43:24;;;;;;;15.15;8.40;;;;;;;7.92;100.00;101617.22;5056640;28;20507;-82
2020/12/17 08:45:51;;;;;;;12.25;7.38;;;;;;;7.96;100.00;101618.03;5055465;28;20132;-83
2020/12/17 08:48:18;;;;;;;11.13;7.10;;;;;;;7.98;100.00;101624.13;5057582;28;20139;-83
2020/12/17 08:50:44;;;;;;;15.40;6.57;;;;;;;8.07;100.00;101625.69;5056702;28;20025;-82
2020/12/17 08:53:21;;;;;;;11.40;7.30;;;;;;;8.07;100.00;101637.09;5059911;28;20033;-83
2020/12/17 08:56:01;;;;;;;10.57;6.40;;;;;;;8.11;100.00;101633.50;5051906;28;20102;-83
2020/12/17 08:58:26;;;;;;;16.17;7.47;;;;;;;8.27;100.00;101639.28;5052974;28;20028;-81
2020/12/17 09:00:52;;;;;;;10.68;6.95;;;;;;;8.38;98.97;101645.22;5054245;28;20020;-80
2020/12/17 09:03:19;;;;;;;9.25;6.35;;;;;;;8.50;98.50;101650.22;5060960;28;20401;-81
2020/12/17 09:05:59;;;;;;;11.75;5.47;;;;;;;9.60;93.06;101636.88;5058826;28;20520;-82
2020/12/17 09:08:24;;;;;;;11.70;5.45;;;;;;;10.34;89.02;101648.84;5058901;28;20040;-81
2020/12/17 09:10:50;;;;;;;7.97;5.25;;;;;;;10.46;87.96;101641.44;5051989;28;20489;-82
2020/12/17 09:13:17;;;;;;;8.30;4.55;;;;;;;10.30;87.63;101654.28;5060235;28;20037;-82
2020/12/17 09:15:42;;;;;;;14.55;5.45;;;;;;;10.51;87.40;101658.03;5057158;28;20079;-82
2020/12/17 09:18:08;;;;;;;20.30;6.90;;;;;;;10.89;85.88;101659.44;5058253;28;20455;-82
2020/12/17 09:20:34;;;;;;;16.08;5.72;;;;;;;10.32;86.68;101668.28;5043527;28;20021;-81
2020/12/17 09:23:07;;;;;;;9.80;4.53;;;;;;;10.84;84.73;101674.59;5038473;28;20033;-81
2020/12/17 09:25:33;;;;;;;12.57;4.68;;;;;;;11.36;83.30;101676.38;5064798;28;20146;-83
2020/12/17 09:27:58;;;;;;;16.63;4.95;;;;;;;11.24;83.29;101675.91;5052729;28;20447;-82
2020/12/17 09:30:31;;;;;;;7.10;4.68;;;;;;;11.36;82.33;101665.78;5058283;28;20037;-82
2020/12/17 09:33:01;;;;;;;14.48;4.50;;;;;;;11.25;83.02;101682.97;5040350;28;20021;-82
2020/12/17 09:35:30;;;;;;;12.82;4.38;;;;;;;10.11;87.72;101688.25;5053110;28;20119;-82
2020/12/17 09:38:03;;;;;;;7.90;4.53;;;;;;;9.98;88.38;101693.00;5055523;28;20052;-84
2020/12/17 09:40:29;;;;;;;14.57;4.90;;;;;;;10.52;85.61;101697.63;5058529;28;20013;-84
2020/12/17 09:43:12;;;;;;;13.43;4.97;;;;;;;10.58;85.21;101702.72;5056510;28;20025;-84
2020/12/17 09:45:41;;;;;;;14.70;4.78;;;;;;;11.08;83.77;101702.88;5034630;28;20063;-84
2020/12/17 09:48:28;;;;;;;17.88;5.13;;;;;;;10.96;84.24;101702.44;5054360;28;20056;-83
2020/12/17 09:51:11;;;;;;;11.50;3.80;;;;;;;10.71;83.99;101705.84;5056512;28;20083;-83
2020/12/17 09:53:40;;;;;;;12.65;4.32;;;;;;;10.38;85.56;101694.53;5057798;28;20032;-84
2020/12/17 09:56:10;;;;;;;10.80;4.38;;;;;;;11.17;83.66;101703.50;5055602;28;20024;-82
2020/12/17 09:58:36;;;;;;;14.45;4.38;;;;;;;10.74;84.79;101710.16;5064508;28;20020;-82
2020/12/17 10:01:01;;;;;;;8.82;3.78;;;;;;;11.22;82.98;101718.31;5052724;28;20052;-83
2020/12/17 10:03:27;;;;;;;11.20;3.90;;;;;;;11.30;82.08;101724.22;5051153;28;20037;-83
2020/12/17 10:05:52;;;;;;;10.38;4.43;;;;;;;11.59;81.27;101712.63;5061356;28;20621;-83
2020/12/17 10:08:17;;;;;;;10.05;3.65;;;;;;;11.86;80.33;101708.19;5054056;28;20053;-83
2020/12/17 10:10:43;;;;;;;15.70;4.95;;;;;;;11.76;80.65;101716.47;5058800;28;20044;-84
2020/12/17 10:13:09;;;;;;;18.38;4.10;;;;;;;11.50;80.95;101733.28;5051679;28;20025;-82
2020/12/17 10:15:35;;;;;;;11.55;4.05;;;;;;;11.19;83.06;101730.78;5056666;28;20528;-83
2020/12/17 10:18:01;;;;;;;17.52;3.85;;;;;;;10.89;83.72;101729.09;5054385;28;20040;-82
2020/12/17 10:20:26;;;;;;;23.48;5.15;;;;;;;10.73;84.88;101730.47;5031610;28;22037;-82
2020/12/17 10:22:52;;;;;;;14.50;5.38;;;;;;;11.33;82.48;101744.41;5052750;28;20039;-83
2020/12/17 10:25:21;;;;;;;17.50;6.13;;;;;;;10.99;83.20;101734.06;5045339;28;21117;-83
2020/12/17 10:27:46;;;;;;;9.70;4.60;;;;;;;10.54;85.44;101750.44;5033937;28;20021;-82
2020/12/17 10:30:11;;;;;;;15.13;4.65;;;;;;;10.91;84.33;101744.03;5056689;28;20081;-83
2020/12/17 10:32:38;;;;;;;23.63;4.82;;;;;;;11.33;82.71;101752.34;5058070;28;20036;-82
2020/12/17 10:35:05;;;;;;;12.85;4.50;;;;;;;10.91;84.48;101746.69;5062786;28;20036;-83
2020/12/17 10:37:31;;;;;;;19.58;4.38;;;;;;;10.86;84.29;101746.81;5041096;28;20036;-83
2020/12/17 10:39:56;;;;;;;16.55;4.20;;;;;;;10.65;85.18;101766.00;5029662;28;20103;-83
2020/12/17 10:42:22;;;;;;;14.82;4.50;;;;;;;10.96;84.04;101755.34;5053651;28;20024;-83
2020/12/17 10:44:49;;;;;;;16.02;3.78;;;;;;;11.56;81.24;101754.25;5048754;28;20048;-84
2020/12/17 10:47:15;;;;;;;25.10;4.18;;;;;;;11.62;81.21;101761.97;5052844;28;20044;-83
2020/12/17 10:49:41;;;;;;;14.15;4.32;;;;;;;12.29;79.91;101777.28;5059409;28;20081;-81
2020/12/17 10:52:07;;;;;;;16.13;3.30;;;;;;;12.02;79.70;101766.78;5053869;28;20509;-83
2020/12/17 10:54:32;;;;;;;13.55;3.92;;;;;;;11.98;79.52;101774.88;5065704;28;20025;-83
2020/12/17 10:56:58;;;;;;;12.43;3.50;;;;;;;12.14;79.37;101771.63;5052175;28;20025;-84
2020/12/17 10:59:23;;;;;;;10.98;3.65;;;;;;;11.39;82.58;101784.78;5048798;28;20024;-84
2020/12/17 11:01:48;;;;;;;12.07;3.70;;;;;;;10.33;85.90;101786.28;5035447;28;20438;-83
2020/12/17 11:04:13;;;;;;;16.55;3.97;;;;;;;9.80;87.81;101778.91;5050986;28;20059;-80
2020/12/17 11:06:39;;;;;;;13.05;3.78;;;;;;;9.62;89.39;101783.78;5050711;28;20031;-82
2020/12/17 11:09:04;;;;;;;9.90;3.85;;;;;;;9.41;89.72;101796.59;5058887;28;20446;-81
2020/12/17 11:11:29;;;;;;;15.98;3.92;;;;;;;9.37;90.22;101787.00;5049086;28;20474;-81
2020/12/17 11:13:55;;;;;;;18.67;4.45;;;;;;;9.41;90.48;101787.81;5050269;28;20036;-82
2020/12/17 11:16:20;;;;;;;18.02;4.50;;;;;;;9.31;90.38;101787.19;5049757;28;20179;-82
2020/12/17 11:18:46;;;;;;;10.52;3.35;;;;;;;9.30;90.40;101788.94;5048322;28;20025;-82
2020/12/17 11:21:12;;;;;;;18.08;4.18;;;;;;;9.31;90.33;101795.09;5050341;28;20438;-81
2020/12/17 11:23:37;;;;;;;19.45;4.95;;;;;;;9.29;90.90;101789.00;5053861;28;20067;-80
2020/12/17 11:26:04;;;;;;;11.85;4.45;;;;;;;9.54;89.93;101784.84;5052697;28;20166;-80